HRYR/KGL METAR and TAF weather

Enter ICAO airport designator
Station Type Date Time Source
HRYR METAR 2019/08/19 19:00 UTC NOAA

HRYR 191900Z   VRB02KT 9999   FEW026 SCT100 24/09 Q1020 NOSIG


Station Type Date Time Source
HRYR Decoded METAR 2019/08/19 19:00 UTC NOAA

Kigali, Rwanda (HRYR) 01-58S 030-07E 1497M
Aug 19, 2019 - 03:00 PM EDT / 2019.08.19 1900 UTC
Sky conditions: partly cloudy
Temperature: 75 F (24 C)
Dew Point: 48 F (9 C)
Relative Humidity: 38%
Pressure (altimeter): 30.12 in. Hg (1020 hPa)
ob: HRYR 191900Z   VRB02KT 9999   FEW026 SCT100 24/09 Q1020 NOSIG
cycle: 19

Station Type Date Time Source
HRYR TAF 2019/08/19 18:54 UTC NOAA

TAF HRYR 191700Z 1918/2024 14005KT 9999 FEW026 FM 192000 32003KT
BECMG 2002/2005 28003KT FEW026 SCT100 FM 200900 13010KT SCT025
BECMG 2015/2018 20008KT FEW026

Example: see airport list